createdAt,value
2018-03-27T00:00:03.037Z,3.5
2018-03-27T00:05:02.586Z,3.2
2018-03-27T00:10:02.796Z,3.2
2018-03-27T00:15:02.728Z,3.2
2018-03-27T00:20:02.785Z,3.2
2018-03-27T00:25:02.819Z,3.0
2018-03-27T00:30:02.796Z,3.0
2018-03-27T00:35:02.895Z,2.9
2018-03-27T00:40:02.914Z,2.7
2018-03-27T00:45:02.908Z,2.7
2018-03-27T00:50:03.042Z,2.7
2018-03-27T00:55:02.971Z,2.7
2018-03-27T01:00:02.975Z,2.7
2018-03-27T01:05:02.897Z,2.5
2018-03-27T01:10:02.997Z,2.5
2018-03-27T01:15:03.015Z,2.5
2018-03-27T01:20:03.067Z,2.5
2018-03-27T01:25:03.014Z,2.2
2018-03-27T01:30:02.949Z,1.6
2018-03-27T01:35:02.975Z,1.3
2018-03-27T01:40:03.033Z,1.2
2018-03-27T01:45:03.022Z,1.6
2018-03-27T01:50:03.007Z,1.8
2018-03-27T01:55:03.009Z,2.2
2018-03-27T02:00:03.031Z,2.4
2018-03-27T02:05:03.038Z,2.4
2018-03-27T02:10:03.040Z,2.4
2018-03-27T02:15:02.988Z,2.5
2018-03-27T02:20:02.995Z,2.5
2018-03-27T02:25:02.908Z,2.5
2018-03-27T02:30:02.898Z,2.5
2018-03-27T02:35:02.870Z,2.5
2018-03-27T02:40:02.874Z,2.4
2018-03-27T02:45:02.769Z,2.4
2018-03-27T02:50:02.654Z,2.4
2018-03-27T02:55:02.591Z,2.2
2018-03-27T03:00:02.782Z,2.4
2018-03-27T03:05:02.984Z,2.4
2018-03-27T03:10:03.130Z,2.4
2018-03-27T03:15:03.121Z,2.2
2018-03-27T03:20:03.321Z,2.2
2018-03-27T03:25:03.377Z,2.2
2018-03-27T03:30:03.346Z,2.2
2018-03-27T03:35:03.336Z,2.2
2018-03-27T03:40:03.390Z,2.4
2018-03-27T03:45:03.375Z,2.4
2018-03-27T03:50:02.397Z,2.5
2018-03-27T03:55:03.350Z,2.5
2018-03-27T04:00:03.496Z,2.5
2018-03-27T04:05:02.489Z,2.4
2018-03-27T04:10:02.466Z,2.2
2018-03-27T04:15:02.491Z,2.4
2018-03-27T04:20:02.588Z,2.4
2018-03-27T04:25:02.572Z,2.5
2018-03-27T04:30:03.040Z,2.4
2018-03-27T04:35:03.084Z,2.2
2018-03-27T04:40:03.068Z,2.0
2018-03-27T04:45:03.070Z,2.0
2018-03-27T04:50:03.070Z,2.0
2018-03-27T04:55:03.021Z,2.0
2018-03-27T05:00:02.969Z,2.4
2018-03-27T05:05:03.006Z,2.0
2018-03-27T05:10:03.034Z,2.0
2018-03-27T05:15:03.046Z,2.0
2018-03-27T05:20:03.032Z,2.2
2018-03-27T05:25:02.946Z,1.8
2018-03-27T05:30:02.914Z,2.0
2018-03-27T05:35:02.894Z,2.2
2018-03-27T05:40:02.938Z,2.0
2018-03-27T05:45:02.896Z,2.2
2018-03-27T05:50:02.937Z,2.4
2018-03-27T05:55:02.952Z,2.4
2018-03-27T06:00:03.274Z,2.2
2018-03-27T06:05:03.470Z,2.4
2018-03-27T06:10:02.760Z,2.4
2018-03-27T06:15:02.713Z,2.5
2018-03-27T06:20:02.727Z,2.5
2018-03-27T06:25:02.678Z,2.7
2018-03-27T06:30:02.695Z,2.7
2018-03-27T06:35:02.672Z,2.9
2018-03-27T06:40:02.685Z,2.9
2018-03-27T06:45:02.684Z,3.0
2018-03-27T06:50:02.762Z,3.0
2018-03-27T06:55:02.780Z,3.2
2018-03-27T07:00:03.085Z,3.2
2018-03-27T07:05:03.154Z,3.2
2018-03-27T07:10:02.418Z,3.5
2018-03-27T07:15:02.531Z,3.5
2018-03-27T07:20:02.611Z,3.5
2018-03-27T07:25:02.614Z,3.5
2018-03-27T07:30:02.764Z,3.7
2018-03-27T07:35:02.748Z,4.0
2018-03-27T07:40:02.875Z,3.7
2018-03-27T07:45:02.769Z,4.0
2018-03-27T07:50:02.864Z,4.0
2018-03-27T07:55:02.891Z,4.3
2018-03-27T08:00:02.815Z,4.5
2018-03-27T08:05:02.810Z,4.8
2018-03-27T08:10:02.811Z,5.4
2018-03-27T08:15:02.976Z,5.8
2018-03-27T08:20:03.285Z,6.4
2018-03-27T08:25:03.330Z,6.1
2018-03-27T08:30:03.255Z,6.4
2018-03-27T08:35:03.286Z,7.0
2018-03-27T08:40:03.325Z,7.0
2018-03-27T08:45:03.322Z,7.4
2018-03-27T08:50:03.392Z,7.5
2018-03-27T08:55:03.334Z,8.5
2018-03-27T09:00:03.348Z,8.8
2018-03-27T09:05:03.323Z,9.3
2018-03-27T09:10:03.391Z,8.6
2018-03-27T09:15:03.362Z,9.1
2018-03-27T09:20:03.362Z,9.0
2018-03-27T09:25:03.397Z,9.1
2018-03-27T09:30:03.379Z,9.5
2018-03-27T09:35:02.387Z,10.0
2018-03-27T09:40:02.436Z,9.5
2018-03-27T09:45:02.462Z,9.3
2018-03-27T09:50:02.508Z,9.6
2018-03-27T09:55:02.429Z,9.6
2018-03-27T10:00:02.453Z,9.8
2018-03-27T10:05:02.548Z,10.0
2018-03-27T10:10:02.611Z,10.3
2018-03-27T10:15:02.720Z,10.1
2018-03-27T10:20:02.681Z,10.1
2018-03-27T10:25:02.709Z,10.0
2018-03-27T10:30:02.729Z,10.1
2018-03-27T10:35:02.716Z,10.1
2018-03-27T10:40:02.823Z,10.3
2018-03-27T10:45:02.778Z,10.5
2018-03-27T10:50:02.880Z,10.3
2018-03-27T10:55:02.877Z,10.3
2018-03-27T11:00:02.955Z,10.5
2018-03-27T11:05:03.014Z,10.3
2018-03-27T11:10:03.155Z,10.0
2018-03-27T11:15:02.441Z,9.8
2018-03-27T11:20:02.497Z,10.0
2018-03-27T11:25:02.440Z,10.0
2018-03-27T11:30:02.479Z,10.3
2018-03-27T11:35:02.655Z,10.1
2018-03-27T11:40:02.708Z,10.1
2018-03-27T11:45:02.751Z,10.1
2018-03-27T11:50:02.713Z,10.0
2018-03-27T11:55:02.839Z,10.0
2018-03-27T12:00:02.760Z,10.1
2018-03-27T12:05:02.698Z,10.5
2018-03-27T12:10:02.690Z,10.3
2018-03-27T12:15:02.614Z,10.3
2018-03-27T12:20:02.732Z,10.5
2018-03-27T12:25:02.695Z,10.3
2018-03-27T12:30:02.671Z,10.3
2018-03-27T12:35:02.701Z,10.5
2018-03-27T12:40:02.447Z,10.5
2018-03-27T12:45:03.012Z,10.3
2018-03-27T12:50:02.727Z,10.3
2018-03-27T12:55:03.270Z,10.3
2018-03-27T13:00:02.795Z,10.5
2018-03-27T13:05:02.407Z,10.3
2018-03-27T13:10:03.257Z,10.3
2018-03-27T13:15:02.831Z,10.5
2018-03-27T13:20:02.617Z,10.3
2018-03-27T13:25:03.263Z,10.6
2018-03-27T13:30:02.914Z,10.5
2018-03-27T13:35:02.459Z,10.5
2018-03-27T13:40:03.049Z,10.3
2018-03-27T13:45:02.700Z,10.1
2018-03-27T13:50:03.296Z,9.6
2018-03-27T13:55:02.821Z,9.5
2018-03-27T14:00:03.337Z,9.6
2018-03-27T14:05:02.911Z,9.5
2018-03-27T14:10:02.538Z,9.5
2018-03-27T14:15:03.159Z,9.6
2018-03-27T14:20:03.076Z,9.6
2018-03-27T14:25:02.673Z,9.5
2018-03-27T14:30:03.282Z,9.5
2018-03-27T14:35:03.167Z,9.3
2018-03-27T14:40:02.754Z,9.1
2018-03-27T14:45:03.285Z,7.5
2018-03-27T14:50:02.821Z,6.5
2018-03-27T14:55:02.516Z,6.4
2018-03-27T15:00:03.165Z,6.1
2018-03-27T15:05:02.873Z,6.4
2018-03-27T15:10:02.510Z,6.4
2018-03-27T15:15:03.279Z,6.1
2018-03-27T15:20:02.778Z,6.0
2018-03-27T15:25:03.364Z,6.1
2018-03-27T15:30:02.943Z,6.1
2018-03-27T15:35:02.663Z,6.4
2018-03-27T15:40:03.310Z,6.0
2018-03-27T15:45:02.792Z,6.1
2018-03-27T15:50:02.438Z,6.1
2018-03-27T15:55:02.970Z,6.1
2018-03-27T16:00:02.625Z,6.1
2018-03-27T16:05:03.316Z,6.1
2018-03-27T16:10:02.874Z,6.1
2018-03-27T16:15:02.423Z,6.1
2018-03-27T16:20:03.052Z,6.1
2018-03-27T16:25:02.714Z,6.4
2018-03-27T16:30:03.287Z,6.4
2018-03-27T16:35:02.865Z,6.1
2018-03-27T16:40:02.498Z,6.4
2018-03-27T16:45:03.036Z,6.4
2018-03-27T16:50:02.665Z,6.1
2018-03-27T16:55:03.301Z,6.4
2018-03-27T17:00:02.892Z,6.4
2018-03-27T17:05:02.489Z,6.1
2018-03-27T17:10:03.135Z,6.1
2018-03-27T17:15:02.694Z,6.1
2018-03-27T17:20:03.325Z,6.1
2018-03-27T17:25:02.915Z,6.4
2018-03-27T17:30:02.540Z,6.1
2018-03-27T17:35:03.110Z,6.4
2018-03-27T17:40:02.710Z,6.4
2018-03-27T17:45:03.273Z,6.1
2018-03-27T17:50:02.876Z,6.1
2018-03-27T17:55:02.429Z,6.1
2018-03-27T18:00:03.026Z,6.0
2018-03-27T18:05:02.723Z,6.0
2018-03-27T18:10:03.321Z,5.9
2018-03-27T18:15:02.939Z,5.9
2018-03-27T18:20:02.606Z,5.8
2018-03-27T18:25:03.233Z,5.5
2018-03-27T18:30:02.821Z,5.5
2018-03-27T18:35:02.410Z,5.5
2018-03-27T18:40:03.123Z,5.5
2018-03-27T18:45:02.723Z,5.5
2018-03-27T18:50:03.287Z,5.5
2018-03-27T18:55:02.835Z,5.8
2018-03-27T19:00:02.487Z,5.8
2018-03-27T19:05:03.041Z,5.8
2018-03-27T19:10:02.782Z,5.8
2018-03-27T19:15:03.295Z,5.8
2018-03-27T19:20:02.988Z,5.8
2018-03-27T19:25:02.557Z,5.8
2018-03-27T19:30:03.181Z,5.8
2018-03-27T19:35:02.822Z,5.9
2018-03-27T19:40:02.439Z,5.8
2018-03-27T19:45:03.037Z,5.8
2018-03-27T19:50:02.605Z,5.8
2018-03-27T19:55:03.247Z,5.8
2018-03-27T20:00:03.140Z,5.9
2018-03-27T20:05:02.744Z,5.8
2018-03-27T20:10:02.444Z,5.8
2018-03-27T20:15:03.096Z,5.9
2018-03-27T20:20:02.750Z,5.8
2018-03-27T20:25:03.328Z,5.9
2018-03-27T20:30:02.943Z,5.9
2018-03-27T20:35:02.647Z,5.8
2018-03-27T20:40:03.246Z,5.8
2018-03-27T20:45:02.742Z,5.8
2018-03-27T20:50:03.357Z,5.9
2018-03-27T20:55:02.957Z,5.9
2018-03-27T21:00:02.540Z,5.8
2018-03-27T21:05:03.138Z,5.9
2018-03-27T21:10:02.759Z,5.9
2018-03-27T21:15:03.340Z,5.9
2018-03-27T21:20:02.942Z,5.9
2018-03-27T21:25:02.626Z,5.9
2018-03-27T21:30:03.223Z,5.9
2018-03-27T21:35:02.816Z,5.9
2018-03-27T21:40:02.592Z,6.0
2018-03-27T21:45:03.182Z,6.0
2018-03-27T21:50:02.680Z,6.0
2018-03-27T21:55:03.257Z,6.0
2018-03-27T22:00:02.846Z,6.1
2018-03-27T22:05:02.445Z,6.0
2018-03-27T22:10:03.104Z,6.1
2018-03-27T22:15:02.725Z,6.1
2018-03-27T22:20:02.468Z,6.1
2018-03-27T22:25:03.050Z,6.0
2018-03-27T22:30:02.589Z,6.1
2018-03-27T22:35:03.204Z,6.1
2018-03-27T22:40:02.920Z,6.4
2018-03-27T22:45:02.477Z,6.1
2018-03-27T22:50:03.145Z,6.4
2018-03-27T22:55:02.743Z,6.1
2018-03-27T23:00:05.165Z,6.1
2018-03-27T23:05:03.039Z,6.4
2018-03-27T23:10:02.678Z,6.1
2018-03-27T23:15:03.339Z,6.1
2018-03-27T23:20:03.024Z,6.4
2018-03-27T23:25:02.565Z,6.1
2018-03-27T23:30:03.157Z,6.1
2018-03-27T23:35:02.779Z,6.4
2018-03-27T23:40:03.401Z,6.4
2018-03-27T23:45:03.012Z,6.4
2018-03-27T23:50:02.674Z,6.4
2018-03-27T23:55:03.236Z,6.4
